Time;durP1;ratioP1;P1;durP2;ratioP2;P2;SDS_P1;SDS_P2;PMS_P1;PMS_P2;Temp;Humidity;BMP_temperature;BMP_pressure;BME280_temperature;BME280_humidity;BME280_pressure;Samples;Min_cycle;Max_cycle;Signal;HPM_P1;HPM_P2
2023/10/12 00:01:57;;;;;;;0.43;0.43;;;;;;;19.21;74.74;101256.34;5083647;28;20035;-81
2023/10/12 00:04:24;;;;;;;0.40;0.40;;;;;;;19.11;75.96;101253.22;5081047;28;20040;-82
2023/10/12 00:06:51;;;;;;;0.30;0.30;;;;;;;19.10;75.91;101245.25;5079661;28;20040;-81
2023/10/12 00:09:20;;;;;;;0.10;0.10;;;;;;;19.14;75.40;101250.41;5078345;28;20025;-82
2023/10/12 00:11:55;;;;;;;0.30;0.30;;;;;;;19.07;75.69;101251.66;5078353;28;20032;-82
2023/10/12 00:14:23;;;;;;;2.40;0.73;;;;;;;19.07;76.40;101257.88;5083481;28;20044;-81
2023/10/12 00:16:51;;;;;;;1.50;1.08;;;;;;;19.08;75.88;101261.47;5085241;28;20032;-81
2023/10/12 00:19:18;;;;;;;0.20;0.20;;;;;;;19.04;75.85;101268.78;5084680;28;20032;-82
2023/10/12 00:21:44;;;;;;;0.50;0.50;;;;;;;18.95;76.74;101266.53;5081924;28;20055;-81
2023/10/12 00:24:13;;;;;;;2.03;1.25;;;;;;;18.98;76.22;101271.78;5074593;28;20039;-81
2023/10/12 00:26:42;;;;;;;0.60;0.60;;;;;;;18.92;76.98;101267.56;5074424;28;20028;-81
2023/10/12 00:29:08;;;;;;;0.70;0.70;;;;;;;18.94;76.71;101269.31;5074035;28;20514;-81
2023/10/12 00:31:43;;;;;;;6.03;1.45;;;;;;;18.88;77.13;101271.31;5078360;28;20099;-81
2023/10/12 00:34:12;;;;;;;0.30;0.30;;;;;;;18.81;77.41;101290.47;5075153;28;20127;-81
2023/10/12 00:36:40;;;;;;;0.85;0.80;;;;;;;18.72;77.60;101281.03;5076915;28;20032;-81
2023/10/12 00:39:10;;;;;;;0.20;0.20;;;;;;;18.75;76.94;101294.31;5076283;28;20044;-81
2023/10/12 00:41:44;;;;;;;0.30;0.30;;;;;;;18.71;76.78;101298.94;5074103;28;20031;-80
2023/10/12 00:44:12;;;;;;;1.52;1.40;;;;;;;18.63;77.05;101290.41;5075137;28;20036;-81
2023/10/12 00:46:42;;;;;;;2.50;1.15;;;;;;;18.57;76.96;101301.41;5076114;28;20121;-81
2023/10/12 00:49:18;;;;;;;1.38;1.27;;;;;;;18.53;76.81;101300.69;5084464;28;20064;-80
2023/10/12 00:57:18;;;;;;;0.10;0.10;;;;;;;18.20;76.77;101306.63;5109069;27;20344;-80
2023/10/12 00:59:46;;;;;;;1.30;1.30;;;;;;;18.18;76.37;101302.28;5099077;28;20036;-80
2023/10/12 01:02:15;;;;;;;0.40;0.40;;;;;;;18.02;76.98;101319.06;5082695;28;20480;-80
2023/10/12 01:04:41;;;;;;;0.47;0.47;;;;;;;18.01;76.68;101306.59;5090953;28;20495;-80
2023/10/12 01:07:10;;;;;;;0.10;0.10;;;;;;;18.04;77.04;101295.72;5087921;28;20037;-79
2023/10/12 01:09:42;;;;;;;0.10;0.10;;;;;;;17.92;77.44;101297.09;5092750;28;20555;-80
2023/10/12 01:12:17;;;;;;;0.30;0.30;;;;;;;17.98;76.91;101290.66;5093424;28;20037;-80
2023/10/12 01:14:47;;;;;;;0.10;0.10;;;;;;;17.95;77.00;101299.66;5082334;28;20399;-79
2023/10/12 01:17:18;;;;;;;1.70;1.08;;;;;;;17.98;77.04;101301.38;5088042;28;20311;-81
2023/10/12 01:19:45;;;;;;;0.20;0.20;;;;;;;17.99;76.79;101292.38;5096819;28;20031;-79
2023/10/12 01:22:13;;;;;;;4.28;1.20;;;;;;;17.90;77.45;101285.56;5094185;28;20078;-80
2023/10/12 01:27:33;;;;;;;0.35;0.35;;;;;;;18.01;77.13;101258.31;5077724;28;20418;-83
2023/10/12 01:30:13;;;;;;;0.20;0.20;;;;;;;18.02;77.01;101269.91;5079189;28;20031;-84
2023/10/12 01:32:40;;;;;;;0.25;0.25;;;;;;;17.96;77.12;101268.38;5066618;28;20036;-82
2023/10/12 01:35:10;;;;;;;0.17;0.17;;;;;;;17.99;76.45;101275.41;5070810;28;20028;-82
2023/10/12 01:37:55;;;;;;;0.20;0.20;;;;;;;17.96;77.12;101271.06;5069902;28;20082;-82
2023/10/12 01:40:24;;;;;;;1.00;1.00;;;;;;;17.97;76.89;101262.09;5071779;28;20029;-82
2023/10/12 01:42:50;;;;;;;0.10;0.10;;;;;;;17.99;76.92;101270.91;5070949;28;20514;-81
2023/10/12 01:45:19;;;;;;;0.10;0.10;;;;;;;17.95;77.42;101272.84;5067232;28;20035;-82
2023/10/12 01:47:55;;;;;;;0.57;0.57;;;;;;;17.97;77.12;101278.19;5067315;28;20094;-83
2023/10/12 01:50:24;;;;;;;0.40;0.40;;;;;;;17.95;77.25;101274.69;5075185;28;20028;-83
2023/10/12 01:52:52;;;;;;;0.75;0.32;;;;;;;17.96;76.87;101265.72;5067431;28;20025;-82
2023/10/12 01:55:28;;;;;;;0.15;0.15;;;;;;;18.00;77.18;101255.72;5071091;28;20156;-83
2023/10/12 01:57:55;;;;;;;1.15;0.98;;;;;;;18.01;76.79;101250.28;5063552;28;20025;-82
2023/10/12 02:00:53;;;;;;;0.75;0.75;;;;;;;18.02;76.80;101254.72;5071103;28;20029;-83
2023/10/12 02:05:59;;;;;;;0.10;0.10;;;;;;;18.02;76.71;101252.03;5061017;28;20072;-82
2023/10/12 02:14:01;;;;;;;0.47;0.35;;;;;;;18.03;77.10;101256.47;5057085;28;20358;-81
2023/10/12 02:16:31;;;;;;;0.13;0.13;;;;;;;18.07;76.81;101263.41;5054246;28;20575;-81
2023/10/12 02:18:58;;;;;;;0.10;0.10;;;;;;;18.07;77.12;101255.38;5055249;28;20042;-82
2023/10/12 02:21:26;;;;;;;0.20;0.20;;;;;;;18.10;76.96;101252.53;5054226;28;20581;-81
2023/10/12 02:26:35;;;;;;;0.25;0.25;;;;;;;18.10;77.28;101252.53;5108411;27;20401;-81
2023/10/12 02:34:29;;;;;;;0.63;0.63;;;;;;;18.14;77.14;101220.22;5082056;28;20397;-81
2023/10/12 02:37:16;;;;;;;0.00;0.00;;;;;;;18.15;76.83;101220.16;5081721;28;20111;-81
2023/10/12 02:39:46;;;;;;;0.10;0.10;;;;;;;18.18;76.73;101237.91;5078368;28;20055;-82
2023/10/12 02:42:17;;;;;;;0.30;0.30;;;;;;;18.22;76.64;101231.50;5074108;28;20060;-81
2023/10/12 02:47:30;;;;;;;0.10;0.10;;;;;;;18.24;76.86;101243.00;5117344;27;20400;-81
2023/10/12 02:50:14;;;;;;;0.10;0.10;;;;;;;18.26;76.90;101241.13;5103467;28;20039;-81
2023/10/12 02:52:43;;;;;;;0.20;0.20;;;;;;;18.29;76.91;101245.47;5104787;28;20097;-80
2023/10/12 02:55:26;;;;;;;0.13;0.13;;;;;;;18.30;76.90;101248.09;5107104;28;20043;-81
2023/10/12 02:57:55;;;;;;;0.10;0.10;;;;;;;18.33;76.84;101247.97;5096069;28;20028;-81
2023/10/12 03:03:47;;;;;;;0.65;0.38;;;;;;;18.35;76.75;101247.88;5096578;28;20040;-82
2023/10/12 03:06:01;;;;;;;0.40;0.40;;;;;;;18.36;76.90;101247.81;5096298;28;20050;-82
2023/10/12 03:08:31;;;;;;;0.10;0.10;;;;;;;18.35;76.92;101251.41;5096360;28;20048;-81
2023/10/12 03:14:13;;;;;;;0.25;0.15;;;;;;;18.38;76.85;101245.03;5118156;27;20396;-81
2023/10/12 03:16:34;;;;;;;0.10;0.10;;;;;;;18.40;76.85;101235.13;5109310;28;20074;-82
2023/10/12 03:19:16;;;;;;;0.10;0.10;;;;;;;18.41;76.73;101224.31;5099394;28;20046;-81
2023/10/12 03:21:46;;;;;;;0.03;0.03;;;;;;;18.41;76.75;101226.13;5095887;28;20470;-81
2023/10/12 03:24:14;;;;;;;0.10;0.10;;;;;;;18.43;76.86;101248.41;5103426;28;20035;-82
2023/10/12 03:26:40;;;;;;;0.00;0.00;;;;;;;18.45;76.95;101251.00;5101087;28;20043;-80
2023/10/12 03:31:53;;;;;;;0.10;0.10;;;;;;;18.47;76.92;101247.31;5109464;27;20906;-80
2023/10/12 03:37:14;;;;;;;0.10;0.10;;;;;;;18.49;76.57;101261.53;5097345;27;20393;-82
2023/10/12 03:39:58;;;;;;;0.20;0.20;;;;;;;18.47;76.49;101265.19;5093355;28;20028;-80
2023/10/12 03:45:13;;;;;;;1.17;0.57;;;;;;;18.43;76.49;101260.00;5109057;27;20388;-80
2023/10/12 03:48:02;;;;;;;0.10;0.10;;;;;;;18.43;76.45;101265.34;5107386;28;20375;-80
2023/10/12 03:50:27;;;;;;;0.10;0.10;;;;;;;18.38;76.74;101267.38;5077583;28;20464;-81
2023/10/12 03:52:53;;;;;;;0.35;0.35;;;;;;;18.36;76.42;101269.25;5088831;28;20050;-80
2023/10/12 03:55:26;;;;;;;0.63;0.63;;;;;;;18.36;76.42;101263.91;5088063;28;20028;-80
2023/10/12 03:58:07;;;;;;;0.30;0.30;;;;;;;18.38;76.48;101269.19;5088633;28;20024;-80
2023/10/12 04:00:46;;;;;;;1.65;1.55;;;;;;;18.39;76.75;101274.50;5088020;28;20036;-80
2023/10/12 04:03:18;;;;;;;0.10;0.10;;;;;;;18.39;76.76;101273.63;5078688;28;20029;-80
2023/10/12 04:05:47;;;;;;;0.00;0.00;;;;;;;18.37;76.49;101271.00;5087778;28;20111;-80
2023/10/12 04:08:19;;;;;;;0.00;0.00;;;;;;;18.38;76.68;101278.13;5089132;28;20108;-80
2023/10/12 04:21:33;;;;;;;1.38;0.60;;;;;;;18.39;76.89;101273.63;5103069;27;20404;-77
2023/10/12 04:27:07;;;;;;;0.63;0.55;;;;;;;18.39;76.98;101277.19;5092369;27;20401;-79
2023/10/12 04:29:31;;;;;;;0.10;0.10;;;;;;;18.37;76.93;101281.75;5086691;28;20040;-79
2023/10/12 04:32:09;;;;;;;0.10;0.10;;;;;;;18.40;76.90;101288.78;5076343;28;20036;-78
2023/10/12 04:34:47;;;;;;;0.10;0.10;;;;;;;18.39;76.84;101295.97;5076155;28;20032;-79
2023/10/12 04:37:18;;;;;;;0.10;0.10;;;;;;;18.38;76.75;101294.22;5073190;28;20386;-78
2023/10/12 04:40:09;;;;;;;1.35;0.75;;;;;;;18.37;76.89;101295.16;5075089;28;20032;-79
2023/10/12 04:42:34;;;;;;;0.10;0.10;;;;;;;18.39;76.60;101300.44;5077708;28;20406;-79
2023/10/12 04:45:05;;;;;;;0.05;0.05;;;;;;;18.39;76.78;101305.81;5074204;28;20025;-79
2023/10/12 04:47:35;;;;;;;0.00;0.00;;;;;;;18.42;76.83;101305.69;5073968;28;20496;-77
2023/10/12 04:50:05;;;;;;;0.10;0.10;;;;;;;18.42;76.95;101303.84;5080003;28;20035;-78
2023/10/12 04:52:32;;;;;;;0.10;0.10;;;;;;;18.41;76.90;101309.31;5089528;28;20024;-79
2023/10/12 04:55:06;;;;;;;0.10;0.10;;;;;;;18.38;77.02;101304.94;5070343;28;20024;-79
2023/10/12 04:57:34;;;;;;;0.15;0.15;;;;;;;18.35;76.95;101315.81;5076043;28;20040;-79
2023/10/12 05:00:12;;;;;;;0.88;0.88;;;;;;;18.28;76.49;101314.38;5062766;28;20029;-80
2023/10/12 05:03:26;;;;;;;0.10;0.10;;;;;;;18.17;75.84;101322.00;5075024;28;20512;-78
2023/10/12 05:08:05;;;;;;;0.10;0.10;;;;;;;17.83;75.49;101331.47;5075819;28;20391;-81
2023/10/12 05:10:41;;;;;;;0.00;0.00;;;;;;;17.69;75.36;101338.28;5060683;28;20067;-81
2023/10/12 05:13:10;;;;;;;0.10;0.10;;;;;;;17.59;75.46;101332.44;5052853;28;20021;-78
2023/10/12 05:15:42;;;;;;;0.10;0.10;;;;;;;17.52;75.35;101340.78;5051195;28;20073;-79
2023/10/12 05:18:10;;;;;;;0.10;0.10;;;;;;;17.42;75.33;101341.19;5052895;28;20548;-81
2023/10/12 05:20:41;;;;;;;0.10;0.10;;;;;;;17.33;75.24;101346.03;5053570;28;20083;-80
2023/10/12 05:23:07;;;;;;;0.10;0.10;;;;;;;17.27;75.21;101341.78;5051879;28;20140;-80
2023/10/12 05:28:47;;;;;;;0.10;0.10;;;;;;;17.20;75.46;101351.88;5045859;28;20049;-80
2023/10/12 05:36:33;;;;;;;0.10;0.10;;;;;;;17.08;75.59;101363.06;5093017;28;20078;-79
2023/10/12 05:39:12;;;;;;;0.10;0.10;;;;;;;16.94;75.35;101367.16;5085639;28;20047;-79
2023/10/12 05:41:39;;;;;;;0.10;0.10;;;;;;;16.93;75.21;101369.91;5098727;28;20453;-77
2023/10/12 05:44:08;;;;;;;0.10;0.10;;;;;;;16.87;75.25;101365.59;5097936;28;20058;-80
2023/10/12 05:46:35;;;;;;;0.10;0.10;;;;;;;16.84;75.44;101372.91;5091738;28;20039;-80
2023/10/12 05:49:11;;;;;;;0.10;0.10;;;;;;;16.80;75.38;101370.31;5089968;28;20025;-79
2023/10/12 05:51:37;;;;;;;0.10;0.10;;;;;;;16.80;75.63;101375.69;5087341;28;20044;-80
2023/10/12 05:54:06;;;;;;;0.10;0.10;;;;;;;16.80;75.67;101367.66;5094362;28;20028;-80
2023/10/12 05:56:34;;;;;;;0.10;0.10;;;;;;;16.81;75.88;101374.75;5092492;28;20032;-80
2023/10/12 05:59:01;;;;;;;0.10;0.10;;;;;;;16.82;75.99;101367.59;5077308;28;20082;-78
2023/10/12 06:01:35;;;;;;;0.10;0.10;;;;;;;16.82;76.09;101379.19;5083669;28;20532;-82
2023/10/12 06:04:05;;;;;;;0.10;0.10;;;;;;;16.82;76.19;101378.28;5087385;28;20165;-82
2023/10/12 06:06:35;;;;;;;0.10;0.10;;;;;;;16.81;76.06;101385.47;5083493;28;20025;-80
2023/10/12 06:09:11;;;;;;;0.10;0.10;;;;;;;16.81;75.94;101388.13;5084709;28;20450;-81
2023/10/12 06:11:40;;;;;;;0.10;0.10;;;;;;;16.81;76.30;101389.94;5077199;28;20045;-80
2023/10/12 06:14:07;;;;;;;0.10;0.10;;;;;;;16.80;76.12;101390.88;5071191;28;20055;-78
2023/10/12 06:16:39;;;;;;;0.10;0.10;;;;;;;16.80;76.29;101394.41;5068536;28;20036;-81
2023/10/12 06:19:08;;;;;;;0.73;0.73;;;;;;;16.81;76.49;101390.81;5072533;28;20028;-80
2023/10/12 06:21:42;;;;;;;0.10;0.10;;;;;;;16.83;76.35;101398.78;5078073;28;20040;-79
2023/10/12 06:24:11;;;;;;;0.10;0.10;;;;;;;16.86;76.32;101397.78;5071935;28;20083;-81
2023/10/12 06:26:38;;;;;;;0.10;0.10;;;;;;;16.86;76.58;101400.47;5068889;28;20035;-81
2023/10/12 06:29:08;;;;;;;0.10;0.10;;;;;;;16.87;76.67;101405.75;5070800;28;20025;-80
2023/10/12 06:31:34;;;;;;;0.10;0.10;;;;;;;16.88;76.83;101404.81;5075831;28;20111;-81
2023/10/12 06:34:04;;;;;;;0.30;0.30;;;;;;;16.88;76.35;101404.81;5082870;28;20032;-81
2023/10/12 06:36:37;;;;;;;0.10;0.10;;;;;;;16.84;76.24;101410.38;5090933;28;20023;-81
2023/10/12 06:41:59;;;;;;;0.10;0.10;;;;;;;16.76;76.53;101414.19;5110548;27;20378;-79
2023/10/12 06:44:26;;;;;;;0.10;0.10;;;;;;;16.76;76.35;101414.19;5096205;28;20035;-77
2023/10/12 06:46:54;;;;;;;0.10;0.10;;;;;;;16.77;76.64;101417.72;5089039;28;20039;-78
2023/10/12 06:49:22;;;;;;;0.10;0.10;;;;;;;16.76;76.51;101421.34;5086111;28;20039;-79
2023/10/12 06:52:03;;;;;;;0.10;0.10;;;;;;;16.75;76.50;101430.31;5088820;28;20033;-79
2023/10/12 06:54:33;;;;;;;0.10;0.10;;;;;;;16.74;76.27;101424.06;5074231;28;20029;-78
2023/10/12 06:57:29;;;;;;;0.10;0.10;;;;;;;16.74;76.37;101431.25;5079678;28;20495;-79
2023/10/12 07:02:34;;;;;;;0.00;0.00;;;;;;;16.70;76.67;101443.84;5090330;27;20344;-78
2023/10/12 07:05:04;;;;;;;0.20;0.20;;;;;;;16.71;76.88;101442.94;5093722;28;20036;-78
2023/10/12 07:07:51;;;;;;;0.10;0.10;;;;;;;16.70;76.84;101454.56;5087279;28;20031;-76
2023/10/12 07:10:27;;;;;;;0.10;0.10;;;;;;;16.70;76.55;101449.22;5083850;28;20043;-78
2023/10/12 07:12:57;;;;;;;0.10;0.10;;;;;;;16.71;76.62;101445.59;5084881;28;20142;-76
2023/10/12 07:15:23;;;;;;;0.10;0.10;;;;;;;16.68;76.61;101448.38;5087943;28;20032;-79
2023/10/12 07:17:50;;;;;;;0.10;0.10;;;;;;;16.66;76.64;101445.75;5091053;28;20017;-79
2023/10/12 07:20:49;;;;;;;0.10;0.10;;;;;;;16.71;76.81;101456.31;5097593;28;20024;-78
2023/10/12 07:23:14;;;;;;;0.10;0.10;;;;;;;16.74;76.67;101456.19;5089777;28;20072;-78
2023/10/12 07:25:43;;;;;;;0.10;0.10;;;;;;;16.75;76.97;101462.44;5091863;28;20111;-79
2023/10/12 07:28:17;;;;;;;0.00;0.00;;;;;;;16.77;76.65;101465.91;5089419;28;20059;-76
2023/10/12 07:30:43;;;;;;;0.10;0.10;;;;;;;16.76;76.97;101465.03;5088167;28;20536;-77
2023/10/12 07:33:09;;;;;;;0.45;0.20;;;;;;;16.78;77.03;101468.50;5088705;28;20032;-76
2023/10/12 07:35:38;;;;;;;1.95;0.63;;;;;;;16.80;77.34;101472.03;5078522;28;20028;-78
2023/10/12 07:38:14;;;;;;;0.10;0.10;;;;;;;16.84;77.31;101479.94;5087554;28;20489;-77
2023/10/12 07:40:56;;;;;;;0.45;0.45;;;;;;;16.85;77.08;101485.25;5088852;28;20473;-78
2023/10/12 07:43:24;;;;;;;0.10;0.10;;;;;;;16.87;77.33;101477.16;5088087;28;20107;-77
2023/10/12 07:45:50;;;;;;;0.10;0.10;;;;;;;16.86;77.03;101484.31;5087744;28;20103;-76
2023/10/12 07:48:30;;;;;;;0.10;0.10;;;;;;;16.87;76.93;101488.72;5087144;28;20059;-78
2023/10/12 07:51:15;;;;;;;0.10;0.10;;;;;;;16.85;77.31;101471.88;5089215;28;20024;-79
2023/10/12 07:53:41;;;;;;;0.10;0.10;;;;;;;16.87;77.02;101471.78;5097309;28;20558;-79
2023/10/12 07:56:15;;;;;;;0.30;0.30;;;;;;;16.88;77.01;101463.69;5088325;28;20032;-78
2023/10/12 07:58:43;;;;;;;0.10;0.10;;;;;;;16.87;76.86;101467.31;5089107;28;20032;-78
2023/10/12 08:04:08;;;;;;;0.10;0.10;;;;;;;16.83;77.12;101471.03;5078764;27;20355;-78
2023/10/12 08:12:24;;;;;;;0.10;0.10;;;;;;;16.83;77.34;101463.00;5103518;27;20371;-78
2023/10/12 08:14:53;;;;;;;0.10;0.10;;;;;;;16.88;77.31;101473.56;5106149;28;20406;-79
2023/10/12 08:17:34;;;;;;;0.10;0.10;;;;;;;16.86;77.24;101459.34;5110954;28;20027;-77
2023/10/12 08:22:54;;;;;;;0.10;0.10;;;;;;;16.96;77.14;101487.56;5105489;28;20039;-78
2023/10/12 08:25:27;;;;;;;0.10;0.10;;;;;;;17.00;77.36;101481.16;5103092;28;20058;-77
2023/10/12 08:27:54;;;;;;;1.00;0.85;;;;;;;17.05;77.73;101476.50;5097927;28;20024;-78
2023/10/12 08:30:23;;;;;;;0.10;0.10;;;;;;;17.05;77.62;101492.56;5098913;28;20498;-78
2023/10/12 08:32:58;;;;;;;0.10;0.10;;;;;;;17.08;77.08;101489.75;5101684;28;20036;-78
2023/10/12 08:36:10;;;;;;;0.10;0.10;;;;;;;17.05;77.27;101497.06;5104049;28;20035;-78
2023/10/12 08:38:12;;;;;;;0.10;0.10;;;;;;;17.10;77.53;101498.63;5107590;28;20031;-77
2023/10/12 08:40:55;;;;;;;0.10;0.10;;;;;;;17.13;77.33;101490.50;5110583;28;20482;-80
2023/10/12 08:46:10;;;;;;;0.10;0.10;;;;;;;17.28;77.40;101485.47;5108401;28;20439;-77
2023/10/12 08:48:42;;;;;;;0.10;0.10;;;;;;;17.34;77.43;101492.41;5108464;28;20566;-77
2023/10/12 08:51:16;;;;;;;0.05;0.05;;;;;;;17.45;77.48;101501.78;5104637;28;20031;-77
2023/10/12 08:53:45;;;;;;;0.10;0.10;;;;;;;17.43;77.59;101490.28;5097450;28;20499;-77
2023/10/12 08:56:11;;;;;;;0.10;0.10;;;;;;;17.48;77.41;101495.44;5092664;28;20051;-79
2023/10/12 08:58:48;;;;;;;0.10;0.10;;;;;;;17.48;77.34;101489.22;5103151;28;20032;-79
2023/10/12 09:01:23;;;;;;;0.10;0.10;;;;;;;17.44;76.97;101483.94;5109598;28;20016;-78
2023/10/12 09:03:53;;;;;;;0.32;0.32;;;;;;;17.36;76.73;101488.75;5104812;28;20471;-78
2023/10/12 09:06:29;;;;;;;0.10;0.10;;;;;;;17.34;76.78;101484.38;5098782;28;20033;-77
2023/10/12 09:08:56;;;;;;;0.22;0.22;;;;;;;17.28;76.59;101494.41;5089157;28;20454;-78
2023/10/12 09:11:44;;;;;;;0.57;0.57;;;;;;;17.26;76.70;101493.59;5093591;28;20119;-78
2023/10/12 09:14:13;;;;;;;0.00;0.00;;;;;;;17.26;76.64;101492.72;5097937;28;20063;-79
2023/10/12 09:16:43;;;;;;;0.10;0.10;;;;;;;17.26;76.67;101482.00;5097098;28;20453;-78
2023/10/12 09:19:26;;;;;;;1.20;0.47;;;;;;;17.28;76.63;101466.72;5106898;28;20030;-77
2023/10/12 09:22:00;;;;;;;0.00;0.00;;;;;;;17.26;76.78;101448.06;5092267;28;20563;-77
2023/10/12 09:24:32;;;;;;;0.10;0.10;;;;;;;17.26;77.03;101464.13;5080076;28;20114;-79
2023/10/12 09:27:01;;;;;;;0.10;0.10;;;;;;;17.31;76.95;101463.94;5083624;28;20495;-79
2023/10/12 09:29:28;;;;;;;0.10;0.10;;;;;;;17.34;76.86;101465.63;5082909;28;20036;-79
2023/10/12 09:32:15;;;;;;;0.10;0.10;;;;;;;17.33;76.88;101462.06;5077899;28;20052;-78
2023/10/12 09:34:46;;;;;;;0.10;0.10;;;;;;;17.36;76.75;101467.31;5085247;28;20032;-77
2023/10/12 09:37:16;;;;;;;0.10;0.10;;;;;;;17.35;76.72;101468.25;5081115;28;20119;-78
2023/10/12 09:39:45;;;;;;;0.15;0.15;;;;;;;17.29;76.68;101463.13;5088692;28;20055;-79
2023/10/12 09:42:22;;;;;;;0.10;0.10;;;;;;;17.31;76.77;101450.56;5087730;28;20027;-78
2023/10/12 09:45:01;;;;;;;0.10;0.10;;;;;;;17.30;76.71;101449.66;5091370;28;20024;-79
2023/10/12 09:47:43;;;;;;;0.47;0.47;;;;;;;17.30;76.64;101451.50;5085598;28;20024;-78
2023/10/12 09:50:13;;;;;;;0.65;0.65;;;;;;;17.28;76.97;101445.31;5092032;28;20016;-79
2023/10/12 09:52:57;;;;;;;0.10;0.10;;;;;;;17.33;76.97;101447.81;5095627;28;20420;-78
2023/10/12 09:55:32;;;;;;;0.22;0.22;;;;;;;17.36;76.99;101448.56;5093024;28;20071;-79
2023/10/12 09:58:12;;;;;;;0.10;0.10;;;;;;;17.36;76.95;101443.22;5101585;28;20074;-78
2023/10/12 10:01:01;;;;;;;0.10;0.10;;;;;;;17.40;76.90;101427.91;5092563;28;20068;-78
2023/10/12 10:03:37;;;;;;;0.10;0.10;;;;;;;17.40;77.25;101439.47;5094806;28;20020;-77
2023/10/12 10:06:11;;;;;;;0.10;0.10;;;;;;;17.49;77.14;101438.25;5088996;28;20121;-77
2023/10/12 10:08:47;;;;;;;0.10;0.10;;;;;;;17.48;77.32;101436.50;5087339;28;20051;-78
2023/10/12 10:11:14;;;;;;;0.10;0.10;;;;;;;17.48;77.37;101419.56;5091870;28;20028;-78
2023/10/12 10:16:17;;;;;;;0.38;0.38;;;;;;;17.51;77.53;101420.31;5101960;27;20899;-81
2023/10/12 10:19:21;;;;;;;0.70;0.50;;;;;;;17.54;77.36;101414.81;5077403;28;20052;-81
2023/10/12 10:22:31;;;;;;;0.10;0.10;;;;;;;17.58;77.30;101407.53;5075548;28;20041;-81
2023/10/12 10:27:18;;;;;;;0.10;0.10;;;;;;;17.63;77.30;101403.75;5118006;27;20407;-82
2023/10/12 10:29:54;;;;;;;0.05;0.05;;;;;;;17.65;77.60;101395.63;5111917;28;20027;-82
2023/10/12 10:32:29;;;;;;;0.30;0.30;;;;;;;17.68;77.34;101406.22;5112629;28;20028;-82
2023/10/12 10:35:04;;;;;;;0.08;0.08;;;;;;;17.73;77.25;101404.25;5101647;28;20055;-82
2023/10/12 10:37:57;;;;;;;0.25;0.25;;;;;;;17.76;77.18;101401.41;5094228;28;20441;-82
2023/10/12 10:40:39;;;;;;;0.10;0.10;;;;;;;17.70;77.22;101393.63;5100214;28;20034;-81
2023/10/12 10:43:08;;;;;;;0.55;0.43;;;;;;;17.73;77.13;101403.34;5097954;28;20039;-82
2023/10/12 10:45:37;;;;;;;0.10;0.10;;;;;;;17.72;77.22;101391.78;5112132;28;20023;-82
2023/10/12 10:48:04;;;;;;;0.10;0.10;;;;;;;17.70;77.22;101382.91;5105693;28;20047;-83
2023/10/12 10:50:33;;;;;;;0.13;0.13;;;;;;;17.75;77.38;101396.13;5106393;28;20024;-82
2023/10/12 10:53:08;;;;;;;0.03;0.03;;;;;;;17.77;77.44;101383.53;5109432;28;20020;-82
2023/10/12 10:55:35;;;;;;;0.10;0.10;;;;;;;17.83;77.52;101383.28;5107845;28;20031;-82
2023/10/12 10:58:01;;;;;;;0.10;0.10;;;;;;;17.87;77.63;101389.38;5104370;28;20024;-82
2023/10/12 11:00:33;;;;;;;0.10;0.10;;;;;;;17.92;77.74;101384.72;5106736;28;20061;-82
2023/10/12 11:03:03;;;;;;;0.00;0.00;;;;;;;17.90;77.51;101383.91;5111783;28;20498;-82
2023/10/12 11:05:30;;;;;;;0.10;0.10;;;;;;;17.91;77.75;101374.91;5106534;28;20031;-80
2023/10/12 11:08:15;;;;;;;0.00;0.00;;;;;;;17.94;77.57;101380.16;5108297;28;20028;-80
2023/10/12 11:11:25;;;;;;;0.10;0.10;;;;;;;17.93;77.30;101383.75;5098317;28;20022;-80
2023/10/12 11:13:31;;;;;;;0.47;0.47;;;;;;;17.93;77.69;101383.75;5098983;28;20044;-81
2023/10/12 11:16:03;;;;;;;0.05;0.05;;;;;;;17.97;77.52;101376.47;5105951;28;20031;-81
2023/10/12 11:18:31;;;;;;;0.20;0.20;;;;;;;17.95;77.94;101381.91;5105977;28;20024;-80
2023/10/12 11:21:03;;;;;;;0.43;0.43;;;;;;;17.99;78.03;101378.16;5110459;28;20027;-80
2023/10/12 11:23:29;;;;;;;0.55;0.55;;;;;;;18.02;78.03;101388.78;5106297;28;20023;-80
2023/10/12 11:26:04;;;;;;;0.60;0.60;;;;;;;18.10;78.06;101380.38;5105623;28;20046;-81
2023/10/12 11:28:33;;;;;;;0.10;0.10;;;;;;;18.11;77.87;101369.59;5107895;28;20086;-81
2023/10/12 11:31:20;;;;;;;0.10;0.10;;;;;;;18.21;78.04;101361.16;5111172;28;20118;-82
2023/10/12 11:33:49;;;;;;;0.25;0.25;;;;;;;18.21;78.03;101361.16;5107783;28;20550;-81
2023/10/12 11:36:23;;;;;;;0.20;0.20;;;;;;;18.23;77.91;101354.78;5110049;28;20027;-81
2023/10/12 11:38:58;;;;;;;10.95;2.55;;;;;;;18.29;77.95;101356.31;5089324;28;20088;-81
2023/10/12 11:41:25;;;;;;;0.10;0.10;;;;;;;18.27;77.97;101360.91;5096226;28;20020;-82
2023/10/12 11:43:53;;;;;;;0.20;0.20;;;;;;;18.30;78.01;101349.16;5097635;28;20042;-82
2023/10/12 11:46:21;;;;;;;0.10;0.10;;;;;;;18.34;77.88;101345.38;5097134;28;20031;-82
2023/10/12 11:49:02;;;;;;;0.13;0.13;;;;;;;18.42;77.87;101349.47;5088355;28;20212;-83
2023/10/12 11:51:28;;;;;;;0.10;0.10;;;;;;;18.39;77.96;101346.03;5097358;28;20063;-82
2023/10/12 11:53:54;;;;;;;0.10;0.10;;;;;;;18.39;78.30;101338.00;5096879;28;20103;-83
2023/10/12 11:56:25;;;;;;;0.10;0.10;;;;;;;18.42;77.90;101337.88;5090525;28;20032;-83
2023/10/12 11:58:54;;;;;;;0.05;0.05;;;;;;;18.46;77.93;101339.47;5095544;28;20039;-82
2023/10/12 12:01:22;;;;;;;0.03;0.03;;;;;;;18.49;77.88;101333.09;5091303;28;20046;-84
2023/10/12 12:03:53;;;;;;;0.22;0.22;;;;;;;18.50;77.82;101324.09;5083981;28;20032;-82
2023/10/12 12:06:21;;;;;;;0.43;0.43;;;;;;;18.50;77.74;101324.09;5082700;28;20638;-81
2023/10/12 12:08:47;;;;;;;0.20;0.20;;;;;;;18.52;78.00;101324.91;5095033;28;20028;-79
2023/10/12 12:11:19;;;;;;;0.08;0.08;;;;;;;18.53;77.96;101315.91;5082908;28;20048;-80
2023/10/12 12:13:48;;;;;;;0.10;0.10;;;;;;;18.57;77.92;101322.88;5092984;28;20055;-78
2023/10/12 12:16:20;;;;;;;0.10;0.10;;;;;;;18.60;77.86;101320.06;5094660;28;20024;-78
2023/10/12 12:18:49;;;;;;;1.25;0.63;;;;;;;18.61;78.33;101315.56;5094089;28;20108;-81
2023/10/12 12:21:17;;;;;;;0.10;0.10;;;;;;;18.62;78.41;101312.81;5094835;28;20097;-84
2023/10/12 12:23:48;;;;;;;0.17;0.17;;;;;;;18.63;78.30;101309.19;5087069;28;20023;-81
2023/10/12 12:26:18;;;;;;;0.30;0.30;;;;;;;18.65;78.43;101307.28;5095841;28;20111;-79
2023/10/12 12:28:44;;;;;;;1.27;1.17;;;;;;;18.68;78.28;101300.91;5097255;28;20035;-80
2023/10/12 12:31:14;;;;;;;0.00;0.00;;;;;;;18.70;78.46;101299.88;5095300;28;20099;-79
2023/10/12 12:33:43;;;;;;;0.10;0.10;;;;;;;18.73;78.26;101286.34;5094573;28;20039;-79
2023/10/12 12:36:20;;;;;;;0.17;0.17;;;;;;;18.74;78.29;101280.03;5096299;28;20027;-79
2023/10/12 12:38:51;;;;;;;0.45;0.45;;;;;;;18.73;78.50;101310.50;5105020;28;20039;-78
2023/10/12 12:41:18;;;;;;;0.40;0.40;;;;;;;18.73;78.48;101310.50;5094115;28;20028;-79
2023/10/12 12:43:46;;;;;;;0.43;0.43;;;;;;;18.77;78.24;101319.28;5097742;28;21306;-79
2023/10/12 12:46:13;;;;;;;0.17;0.17;;;;;;;18.78;78.43;101315.66;5105380;28;20016;-80
2023/10/12 12:48:39;;;;;;;0.20;0.20;;;;;;;18.81;78.11;101320.00;5100527;28;20035;-79
2023/10/12 12:51:11;;;;;;;0.20;0.20;;;;;;;18.82;78.17;101335.19;5095256;28;20058;-79
2023/10/12 12:53:37;;;;;;;0.00;0.00;;;;;;;18.77;78.86;101338.06;5091552;28;20525;-78
2023/10/12 12:56:04;;;;;;;0.10;0.10;;;;;;;18.73;78.88;101342.72;5097858;28;20024;-79
2023/10/12 12:58:36;;;;;;;0.17;0.17;;;;;;;18.65;78.85;101331.44;5091724;28;20116;-79
2023/10/12 13:01:03;;;;;;;0.38;0.38;;;;;;;18.64;78.07;101327.03;5089608;28;20034;-79
2023/10/12 13:03:29;;;;;;;0.30;0.30;;;;;;;18.58;78.53;101327.31;5090850;28;20031;-79
2023/10/12 13:05:55;;;;;;;0.15;0.15;;;;;;;18.46;78.93;101317.16;5094284;28;20393;-81
2023/10/12 13:08:22;;;;;;;0.10;0.10;;;;;;;18.39;78.81;101325.47;5092537;28;20059;-80
2023/10/12 13:10:48;;;;;;;0.10;0.10;;;;;;;18.34;79.05;101324.78;5099403;28;20035;-81
2023/10/12 13:13:15;;;;;;;0.10;0.10;;;;;;;18.34;78.60;101330.16;5095859;28;20028;-79
2023/10/12 13:15:42;;;;;;;0.03;0.03;;;;;;;18.24;79.73;101347.59;5093759;28;20107;-81
2023/10/12 13:18:16;;;;;;;0.10;0.10;;;;;;;18.24;79.74;101350.28;5092873;28;20035;-80